createdAt,value
2022-07-25T00:02:15.108Z,100940.69
2022-07-25T00:04:43.898Z,100936.53
2022-07-25T00:07:12.800Z,100937.34
2022-07-25T00:09:40.323Z,100940.00
2022-07-25T00:12:08.481Z,100926.09
2022-07-25T00:14:38.827Z,100922.78
2022-07-25T00:17:06.361Z,100924.75
2022-07-25T00:19:33.902Z,100916.97
2022-07-25T00:22:01.381Z,100911.84
2022-07-25T00:24:30.395Z,100907.53
2022-07-25T00:26:57.933Z,100903.41
2022-07-25T00:29:25.530Z,100904.03
2022-07-25T00:31:52.992Z,100896.09
2022-07-25T00:34:20.441Z,100902.56
2022-07-25T00:36:47.984Z,100898.41
2022-07-25T00:39:17.033Z,100899.56
2022-07-25T00:41:46.137Z,100892.28
2022-07-25T00:44:23.107Z,100897.91
2022-07-25T00:46:52.876Z,100892.78
2022-07-25T00:49:20.385Z,100890.44
2022-07-25T00:51:48.564Z,100889.78
2022-07-25T00:54:16.430Z,100883.31
2022-07-25T00:56:44.296Z,100880.50
2022-07-25T00:59:13.170Z,100883.47
2022-07-25T01:01:42.644Z,100871.06
2022-07-25T01:04:10.213Z,100880.00
2022-07-25T01:06:37.831Z,100874.69
2022-07-25T01:09:05.336Z,100866.91
2022-07-25T01:11:32.889Z,100872.19
2022-07-25T01:14:00.719Z,100871.38
2022-07-25T01:16:29.679Z,100875.00
2022-07-25T01:18:57.207Z,100871.38
2022-07-25T01:21:26.442Z,100864.41
2022-07-25T01:23:54.107Z,100861.44
2022-07-25T01:26:21.617Z,100866.06
2022-07-25T01:28:49.119Z,100868.72
2022-07-25T01:31:16.744Z,100862.75
2022-07-25T01:33:44.281Z,100859.47
2022-07-25T01:36:12.123Z,100852.66
2022-07-25T01:38:41.012Z,100845.38
2022-07-25T01:41:08.618Z,100850.00
2022-07-25T01:43:36.178Z,100848.50
2022-07-25T01:46:03.744Z,100850.47
2022-07-25T01:48:31.369Z,100843.56
2022-07-25T01:50:58.967Z,100842.88
2022-07-25T01:53:27.285Z,100842.84
2022-07-25T01:55:56.206Z,100835.75
2022-07-25T01:58:24.937Z,100827.97
2022-07-25T02:00:52.917Z,100841.31
2022-07-25T02:03:32.695Z,100839.13
2022-07-25T02:06:03.783Z,100833.84
2022-07-25T02:08:31.507Z,100836.50
2022-07-25T02:11:01.162Z,100839.31
2022-07-25T02:13:28.831Z,100836.16
2022-07-25T02:15:56.346Z,100834.66
2022-07-25T02:18:23.876Z,100823.06
2022-07-25T02:20:51.398Z,100825.53
2022-07-25T02:23:18.887Z,100824.72
2022-07-25T02:25:46.427Z,100819.41
2022-07-25T02:28:15.345Z,100814.66
2022-07-25T02:30:42.901Z,100807.69
2022-07-25T02:33:10.637Z,100815.94
2022-07-25T02:35:38.166Z,100807.31
2022-07-25T02:38:05.614Z,100806.16
2022-07-25T02:40:33.121Z,100795.53
2022-07-25T02:43:00.610Z,100791.41
2022-07-25T02:45:29.430Z,100794.34
2022-07-25T02:47:56.901Z,100794.84
2022-07-25T02:50:24.421Z,100783.72
2022-07-25T02:52:51.869Z,100791.31
2022-07-25T02:55:19.355Z,100787.19
2022-07-25T02:57:46.800Z,100779.41
2022-07-25T03:00:15.765Z,100782.22
2022-07-25T03:02:45.221Z,100779.72
2022-07-25T03:05:15.360Z,100781.69
2022-07-25T03:07:43.251Z,100775.88
2022-07-25T03:10:13.822Z,100741.84
2022-07-25T03:12:42.742Z,100768.53
2022-07-25T03:15:12.086Z,100770.22
2022-07-25T03:17:40.502Z,100769.66
2022-07-25T03:20:10.521Z,100760.06
2022-07-25T03:22:38.719Z,100754.28
2022-07-25T03:25:15.972Z,100755.41
2022-07-25T03:27:49.362Z,100753.44
2022-07-25T03:30:17.107Z,100753.28
2022-07-25T03:32:44.668Z,100746.31
2022-07-25T03:35:13.494Z,100750.13
2022-07-25T03:37:41.039Z,100751.63
2022-07-25T03:40:09.503Z,100743.03
2022-07-25T03:42:36.981Z,100747.78
2022-07-25T03:45:05.313Z,100746.13
2022-07-25T03:47:32.811Z,100739.03
2022-07-25T03:50:00.304Z,100732.25
2022-07-25T03:52:29.151Z,100732.84
2022-07-25T03:54:56.666Z,100726.59
2022-07-25T03:57:24.145Z,100739.50
2022-07-25T03:59:51.623Z,100734.22
2022-07-25T04:02:19.179Z,100728.78
2022-07-25T04:04:46.838Z,100733.09
2022-07-25T04:07:14.343Z,100725.16
2022-07-25T04:09:43.329Z,100736.22
2022-07-25T04:12:10.906Z,100728.28
2022-07-25T04:14:38.634Z,100726.97
2022-07-25T04:17:06.291Z,100733.09
2022-07-25T04:19:34.000Z,100725.63
2022-07-25T04:22:01.462Z,100719.19
2022-07-25T04:24:28.930Z,100721.00
2022-07-25T04:26:57.790Z,100718.50
2022-07-25T04:29:25.302Z,100714.88
2022-07-25T04:31:53.077Z,100714.06
2022-07-25T04:34:21.109Z,100717.53
2022-07-25T04:36:48.623Z,100709.44
2022-07-25T04:39:16.223Z,100700.38
2022-07-25T04:41:43.780Z,100695.75
2022-07-25T04:44:12.610Z,100693.94
2022-07-25T04:46:41.410Z,100685.34
2022-07-25T04:49:09.215Z,100674.59
2022-07-25T04:51:36.798Z,100672.94
2022-07-25T04:54:04.769Z,100665.38
2022-07-25T04:56:32.560Z,100670.19
2022-07-25T04:59:06.126Z,100659.50
2022-07-25T05:01:36.201Z,100658.03
2022-07-25T05:04:04.017Z,100661.72
2022-07-25T05:06:31.873Z,100648.16
2022-07-25T05:08:59.402Z,100645.19
2022-07-25T05:11:26.950Z,100646.84
2022-07-25T05:13:54.482Z,100649.34
2022-07-25T05:16:22.060Z,100647.00
2022-07-25T05:18:50.973Z,100639.25
2022-07-25T05:21:18.606Z,100634.63
2022-07-25T05:23:46.107Z,100633.31
2022-07-25T05:26:13.750Z,100637.47
2022-07-25T05:28:41.477Z,100620.41
2022-07-25T05:31:09.321Z,100620.78
2022-07-25T05:33:37.675Z,100623.44
2022-07-25T05:36:08.724Z,100639.47
2022-07-25T05:38:36.234Z,100634.84
2022-07-25T05:41:03.789Z,100622.78
2022-07-25T05:43:31.380Z,100627.41
2022-07-25T05:46:02.700Z,100622.78
2022-07-25T05:48:30.396Z,100623.94
2022-07-25T05:50:59.379Z,100616.31
2022-07-25T05:53:28.187Z,100619.50
2022-07-25T05:55:55.825Z,100627.09
2022-07-25T05:58:29.132Z,100612.22
2022-07-25T06:00:57.825Z,100618.31
2022-07-25T06:03:25.445Z,100611.38
2022-07-25T06:05:53.006Z,100608.06
2022-07-25T06:08:20.474Z,100608.38
2022-07-25T06:10:51.587Z,100601.91
2022-07-25T06:13:20.754Z,100609.03
2022-07-25T06:15:48.467Z,100602.22
2022-07-25T06:18:15.998Z,100596.06
2022-07-25T06:20:43.718Z,100594.38
2022-07-25T06:23:11.203Z,100596.31
2022-07-25T06:25:38.836Z,100594.50
2022-07-25T06:28:07.831Z,100589.81
2022-07-25T06:30:38.224Z,100591.09
2022-07-25T06:33:05.702Z,100573.50
2022-07-25T06:35:33.221Z,100575.22
2022-07-25T06:38:00.744Z,100564.19
2022-07-25T06:40:28.749Z,100568.94
2022-07-25T06:42:56.304Z,100570.84
2022-07-25T06:45:25.486Z,100565.38
2022-07-25T06:47:53.078Z,100559.31
2022-07-25T06:50:21.340Z,100554.00
2022-07-25T06:52:50.000Z,100555.84
2022-07-25T06:55:17.676Z,100554.78
2022-07-25T06:57:45.201Z,100543.06
2022-07-25T07:00:14.411Z,100554.13
2022-07-25T07:02:55.876Z,100546.28
2022-07-25T07:05:24.145Z,100526.72
2022-07-25T07:07:51.761Z,100540.91
2022-07-25T07:10:20.153Z,100533.97
2022-07-25T07:12:47.888Z,100522.59
2022-07-25T07:15:25.801Z,100429.25
2022-07-25T07:17:54.854Z,100520.63
2022-07-25T07:20:22.558Z,100526.25
2022-07-25T07:22:50.549Z,100516.50
2022-07-25T07:25:20.872Z,100528.50
2022-07-25T07:27:49.119Z,100516.66
2022-07-25T07:30:20.841Z,100514.22
2022-07-25T07:32:51.640Z,100516.34
2022-07-25T07:35:20.747Z,100516.84
2022-07-25T07:37:48.445Z,100514.59
2022-07-25T07:40:16.938Z,100521.81
2022-07-25T07:42:47.392Z,100515.09
2022-07-25T07:45:16.946Z,100504.19
2022-07-25T07:47:45.077Z,100506.75
2022-07-25T07:50:12.660Z,100495.88
2022-07-25T07:52:41.493Z,100492.38
2022-07-25T07:55:42.301Z,100501.44
2022-07-25T07:58:10.262Z,100495.69
2022-07-25T08:00:39.354Z,100497.75
2022-07-25T08:03:08.661Z,100490.75
2022-07-25T08:05:40.051Z,100489.53
2022-07-25T08:08:11.559Z,100488.28
2022-07-25T08:10:42.114Z,100480.03
2022-07-25T08:13:18.445Z,100480.38
2022-07-25T08:15:48.301Z,100475.63
2022-07-25T08:18:17.624Z,100474.75
2022-07-25T08:20:45.959Z,100473.13
2022-07-25T08:23:15.296Z,100468.34
2022-07-25T08:25:43.656Z,100479.63
2022-07-25T08:28:11.920Z,100473.59
2022-07-25T08:30:40.760Z,100474.31
2022-07-25T08:33:10.801Z,100476.72
2022-07-25T08:35:38.609Z,100468.81
2022-07-25T08:38:06.743Z,100459.69
2022-07-25T08:40:35.622Z,100451.16
2022-07-25T08:43:03.247Z,100455.97
2022-07-25T08:45:30.750Z,100460.00
2022-07-25T08:47:58.242Z,100443.63
2022-07-25T08:50:28.091Z,100448.09
2022-07-25T08:53:10.409Z,100451.06
2022-07-25T08:55:45.914Z,100445.31
2022-07-25T08:58:15.279Z,100428.19
2022-07-25T09:00:44.109Z,100439.22
2022-07-25T09:03:12.168Z,100447.56
2022-07-25T09:05:40.849Z,100433.09
2022-07-25T09:08:11.063Z,100432.78
2022-07-25T09:10:42.330Z,100420.81
2022-07-25T09:13:14.293Z,100421.59
2022-07-25T09:15:46.162Z,100415.13
2022-07-25T09:18:17.056Z,100414.81
2022-07-25T09:20:46.850Z,100402.06
2022-07-25T09:23:15.726Z,100404.63
2022-07-25T09:25:43.551Z,100399.31
2022-07-25T09:28:18.026Z,100398.47
2022-07-25T09:30:55.951Z,100408.34
2022-07-25T09:33:24.782Z,100392.97
2022-07-25T09:35:52.783Z,100387.81
2022-07-25T09:38:21.645Z,100378.41
2022-07-25T09:40:56.983Z,100372.16
2022-07-25T09:43:37.377Z,100368.41
2022-07-25T09:46:05.570Z,100371.50
2022-07-25T09:48:33.448Z,100366.94
2022-07-25T09:51:01.238Z,100356.94
2022-07-25T09:53:29.337Z,100363.53
2022-07-25T09:55:57.567Z,100348.91
2022-07-25T09:58:26.907Z,100346.69
2022-07-25T10:01:01.738Z,100359.81
2022-07-25T10:03:40.375Z,100344.16
2022-07-25T10:06:16.067Z,100336.19
2022-07-25T10:08:44.502Z,100333.16
2022-07-25T10:11:31.446Z,100331.69
2022-07-25T10:14:11.094Z,100333.13
2022-07-25T10:16:46.808Z,100328.06
2022-07-25T10:19:14.641Z,100319.44
2022-07-25T10:21:42.433Z,100322.47
2022-07-25T10:24:11.727Z,100320.91
2022-07-25T10:26:40.955Z,100311.00
2022-07-25T10:29:11.494Z,100315.28
2022-07-25T10:31:49.424Z,100303.44
2022-07-25T10:34:17.842Z,100295.16
2022-07-25T10:36:48.017Z,100300.56
2022-07-25T10:39:16.948Z,100303.34
2022-07-25T10:41:50.472Z,100305.53
2022-07-25T10:44:19.390Z,100283.59
2022-07-25T10:46:47.251Z,100285.31
2022-07-25T10:49:23.612Z,100278.75
2022-07-25T10:51:58.250Z,100290.19
2022-07-25T10:54:26.707Z,100277.28
2022-07-25T10:56:57.108Z,100264.03
2022-07-25T10:59:35.200Z,100263.47
2022-07-25T11:02:03.747Z,100255.72
2022-07-25T11:04:31.502Z,100253.28
2022-07-25T11:06:59.095Z,100266.09
2022-07-25T11:09:28.631Z,100259.63
2022-07-25T11:11:58.026Z,100240.72
2022-07-25T11:14:27.477Z,100244.19
2022-07-25T11:16:56.911Z,100249.09
2022-07-25T11:19:27.209Z,100249.09
2022-07-25T11:21:56.832Z,100249.09
2022-07-25T11:24:35.271Z,100238.59
2022-07-25T11:27:02.742Z,100223.94
2022-07-25T11:29:30.246Z,100214.75
2022-07-25T11:32:00.483Z,100218.81
2022-07-25T11:34:29.988Z,100222.88
2022-07-25T11:36:59.377Z,100224.75
2022-07-25T11:39:28.416Z,100228.03
2022-07-25T11:42:07.674Z,100224.25
2022-07-25T11:44:37.234Z,100213.31
2022-07-25T11:47:08.161Z,100212.03
2022-07-25T11:49:45.825Z,100205.28
2022-07-25T11:52:21.635Z,100215.28
2022-07-25T11:54:57.005Z,100195.81
2022-07-25T11:57:26.370Z,100194.19
2022-07-25T11:59:55.127Z,100189.31
2022-07-25T12:02:26.253Z,100195.03
2022-07-25T12:04:58.352Z,100176.63
2022-07-25T12:07:44.534Z,100178.53
2022-07-25T12:10:15.654Z,100176.25
2022-07-25T12:12:49.648Z,100174.78
2022-07-25T12:15:19.915Z,100158.53
2022-07-25T12:17:49.554Z,100158.59
2022-07-25T12:20:18.606Z,100182.09
2022-07-25T12:22:46.570Z,100141.97
2022-07-25T12:25:14.254Z,100147.41
2022-07-25T12:27:42.380Z,100147.28
2022-07-25T12:30:11.530Z,100159.38
2022-07-25T12:32:39.656Z,100142.72
2022-07-25T12:35:10.850Z,100135.53
2022-07-25T12:37:39.283Z,100132.47
2022-07-25T12:40:09.811Z,100125.06
2022-07-25T12:42:37.468Z,100121.78
2022-07-25T12:45:05.785Z,100119.28
2022-07-25T12:47:33.307Z,100129.00
2022-07-25T12:50:01.207Z,100124.19
2022-07-25T12:52:30.143Z,100129.09
2022-07-25T12:54:57.641Z,100110.72
2022-07-25T12:57:25.535Z,100105.88
2022-07-25T12:59:53.053Z,100093.47
2022-07-25T13:02:20.650Z,100078.63
2022-07-25T13:04:48.978Z,100103.50
2022-07-25T13:07:17.011Z,100097.50
2022-07-25T13:09:45.884Z,100095.41
2022-07-25T13:12:16.381Z,100097.63
2022-07-25T13:14:44.231Z,100084.88
2022-07-25T13:17:12.095Z,100077.56
2022-07-25T13:19:39.624Z,100070.56
2022-07-25T13:22:07.507Z,100071.38
2022-07-25T13:24:35.237Z,100074.88
2022-07-25T13:27:05.634Z,100073.25
2022-07-25T13:29:33.191Z,100073.53
2022-07-25T13:32:02.900Z,100067.03
2022-07-25T13:34:31.839Z,100060.28
2022-07-25T13:36:59.396Z,100055.66
2022-07-25T13:39:27.264Z,100064.88
2022-07-25T13:41:54.887Z,100053.50
2022-07-25T13:44:23.729Z,100041.09
2022-07-25T13:46:51.254Z,100044.59
2022-07-25T13:49:19.224Z,100051.91
2022-07-25T13:51:47.601Z,100035.13
2022-07-25T13:54:15.174Z,100041.59
2022-07-25T13:56:43.219Z,100031.03
2022-07-25T13:59:14.496Z,100025.31
2022-07-25T14:01:47.522Z,100024.00
2022-07-25T14:04:15.156Z,100008.56
2022-07-25T14:06:42.911Z,100010.72
2022-07-25T14:09:10.813Z,100013.38
2022-07-25T14:11:38.508Z,100024.44
2022-07-25T14:14:06.011Z,100012.81
2022-07-25T14:16:34.674Z,100007.94
2022-07-25T14:19:03.743Z,100001.94
2022-07-25T14:21:31.344Z,100006.28
2022-07-25T14:23:58.818Z,100016.25
2022-07-25T14:26:28.213Z,100008.13
2022-07-25T14:28:55.787Z,100004.97
2022-07-25T14:31:23.665Z,100001.50
2022-07-25T14:33:51.368Z,99995.56
2022-07-25T14:36:20.446Z,99992.34
2022-07-25T14:38:48.445Z,99994.53
2022-07-25T14:41:16.546Z,99992.34
2022-07-25T14:43:44.088Z,100000.50
2022-07-25T14:46:11.694Z,99998.38
2022-07-25T14:48:39.639Z,99998.63
2022-07-25T14:51:08.086Z,99982.13
2022-07-25T14:53:38.145Z,99988.59
2022-07-25T14:56:07.251Z,99980.75
2022-07-25T14:58:35.390Z,99977.25
2022-07-25T15:01:03.019Z,99964.25
2022-07-25T15:03:30.690Z,99967.53
2022-07-25T15:05:58.919Z,99955.09
2022-07-25T15:08:26.558Z,99943.16
2022-07-25T15:10:55.809Z,99948.84
2022-07-25T15:13:32.074Z,99943.41
2022-07-25T15:16:00.149Z,99946.38
2022-07-25T15:18:28.255Z,99932.84
2022-07-25T15:20:55.811Z,99928.00
2022-07-25T15:23:24.913Z,99918.25
2022-07-25T15:26:02.296Z,99923.41
2022-07-25T15:28:33.728Z,99916.41
2022-07-25T15:31:01.463Z,99911.53
2022-07-25T15:33:29.399Z,99899.13
2022-07-25T15:35:57.054Z,99893.44
2022-07-25T15:38:24.825Z,99890.72
2022-07-25T15:40:52.605Z,99875.06
2022-07-25T15:43:20.228Z,99865.06
2022-07-25T15:45:49.128Z,99886.13
2022-07-25T15:48:18.063Z,99876.94
2022-07-25T15:50:47.108Z,99870.47
2022-07-25T15:53:15.080Z,99839.09
2022-07-25T15:55:43.611Z,99858.63
2022-07-25T15:58:12.123Z,99869.94
2022-07-25T16:00:40.815Z,99849.69
2022-07-25T16:03:10.391Z,99842.13
2022-07-25T16:05:39.820Z,99831.88
2022-07-25T16:08:08.562Z,99839.97
2022-07-25T16:10:36.585Z,99838.84
2022-07-25T16:13:04.428Z,99835.94
2022-07-25T16:15:32.110Z,99817.28
2022-07-25T16:18:02.598Z,99825.38
2022-07-25T16:20:33.295Z,99799.97
2022-07-25T16:23:01.228Z,99832.66
2022-07-25T16:25:30.793Z,99819.41
2022-07-25T16:27:59.501Z,99824.28
2022-07-25T16:30:27.443Z,99836.19
2022-07-25T16:32:55.573Z,99824.56
2022-07-25T16:35:23.492Z,99821.31
2022-07-25T16:37:52.867Z,99801.28
2022-07-25T16:40:21.119Z,99812.91
2022-07-25T16:42:49.720Z,99821.81
2022-07-25T16:45:17.330Z,99834.22
2022-07-25T16:47:44.894Z,99870.53
2022-07-25T16:50:12.399Z,99876.38
2022-07-25T16:52:40.065Z,99903.31
2022-07-25T16:55:09.850Z,99878.84
2022-07-25T16:57:39.036Z,99875.97
2022-07-25T17:00:09.268Z,99874.25
2022-07-25T17:02:37.223Z,99899.34
2022-07-25T17:05:05.519Z,99894.22
2022-07-25T17:07:33.289Z,99900.88
2022-07-25T17:10:00.777Z,99902.56
2022-07-25T17:12:29.692Z,99918.56
2022-07-25T17:14:57.184Z,99888.38
2022-07-25T17:17:24.694Z,99966.25
2022-07-25T17:19:55.412Z,99995.00
2022-07-25T17:22:27.013Z,100000.13
2022-07-25T17:24:54.511Z,99972.03
2022-07-25T17:27:22.015Z,99969.06
2022-07-25T17:29:50.990Z,99965.81
2022-07-25T17:32:18.544Z,99989.28
2022-07-25T17:34:47.086Z,99982.75
2022-07-25T17:37:14.687Z,99968.91
2022-07-25T17:39:42.403Z,99985.47
2022-07-25T17:42:09.976Z,99999.69
2022-07-25T17:44:37.655Z,100006.31
2022-07-25T17:47:07.317Z,100018.56
2022-07-25T17:49:35.018Z,100030.19
2022-07-25T17:52:02.542Z,99993.19
2022-07-25T17:54:30.109Z,100020.34
2022-07-25T17:56:58.718Z,100042.06
2022-07-25T17:59:26.247Z,100015.41
2022-07-25T18:01:53.834Z,100004.78
2022-07-25T18:04:23.256Z,99998.91
2022-07-25T18:06:50.981Z,100007.66
2022-07-25T18:09:20.319Z,100038.09
2022-07-25T18:11:47.952Z,100022.06
2022-07-25T18:14:15.484Z,100011.22
2022-07-25T18:16:45.417Z,100004.88
2022-07-25T18:19:13.269Z,100002.31
2022-07-25T18:21:42.111Z,99999.53
2022-07-25T18:24:10.245Z,99949.00
2022-07-25T18:26:38.171Z,100007.19
2022-07-25T18:29:06.591Z,100002.19
2022-07-25T18:31:34.262Z,99994.22
2022-07-25T18:34:02.205Z,99997.19
2022-07-25T18:36:30.912Z,99997.31
2022-07-25T18:38:59.793Z,99996.63
2022-07-25T18:41:29.589Z,100018.03
2022-07-25T18:43:57.584Z,100008.53
2022-07-25T18:46:25.542Z,100011.06
2022-07-25T18:48:53.897Z,100000.50
2022-07-25T18:51:21.621Z,99959.03
2022-07-25T18:53:49.579Z,99992.31
2022-07-25T18:56:18.500Z,99985.34
2022-07-25T18:58:46.586Z,99979.03
2022-07-25T19:01:14.279Z,99976.22
2022-07-25T19:03:41.901Z,99967.03
2022-07-25T19:06:11.832Z,99975.25
2022-07-25T19:08:39.632Z,99981.00
2022-07-25T19:11:08.569Z,99984.31
2022-07-25T19:13:49.553Z,99988.38
2022-07-25T19:16:18.739Z,99984.09
2022-07-25T19:18:46.551Z,99978.56
2022-07-25T19:21:15.251Z,99981.25
2022-07-25T19:23:46.980Z,99984.16
2022-07-25T19:26:17.977Z,99993.78
2022-07-25T19:28:47.109Z,99998.72
2022-07-25T19:31:14.904Z,100011.03
2022-07-25T19:33:42.788Z,100002.41
2022-07-25T19:36:10.990Z,100005.31
2022-07-25T19:38:38.777Z,100003.06
2022-07-25T19:41:06.530Z,99995.09
2022-07-25T19:43:34.017Z,100004.31
2022-07-25T19:46:02.977Z,100010.66
2022-07-25T19:48:30.663Z,99961.56
2022-07-25T19:50:58.256Z,100094.72
2022-07-25T19:53:28.635Z,100086.53
2022-07-25T19:55:56.464Z,100079.16
2022-07-25T19:58:24.055Z,100073.41
2022-07-25T20:00:51.672Z,100084.06
2022-07-25T20:03:23.384Z,100058.69
2022-07-25T20:05:52.036Z,100070.34
2022-07-25T20:08:19.750Z,100075.47
2022-07-25T20:10:47.346Z,100070.34
2022-07-25T20:13:15.277Z,100071.38
2022-07-25T20:15:42.835Z,100071.59
2022-07-25T20:18:10.420Z,100075.28
2022-07-25T20:20:39.413Z,100068.31
2022-07-25T20:23:07.014Z,100083.66
2022-07-25T20:25:34.540Z,100099.66
2022-07-25T20:28:02.408Z,100111.53
2022-07-25T20:30:34.625Z,100114.84
2022-07-25T20:33:05.386Z,100117.28
2022-07-25T20:35:39.448Z,100108.91
2022-07-25T20:38:09.643Z,100141.25
2022-07-25T20:40:38.074Z,100119.13
2022-07-25T20:43:09.194Z,100145.56
2022-07-25T20:45:37.219Z,100156.63
2022-07-25T20:48:08.045Z,100156.22
2022-07-25T20:50:37.795Z,100161.94
2022-07-25T20:53:07.338Z,100175.25
2022-07-25T20:55:35.444Z,100197.09
2022-07-25T20:58:03.826Z,100193.41
2022-07-25T21:00:31.894Z,100201.38
2022-07-25T21:03:00.267Z,100208.31
2022-07-25T21:05:28.396Z,100190.47
2022-07-25T21:07:56.199Z,100198.84
2022-07-25T21:10:25.500Z,100183.25
2022-07-25T21:12:55.866Z,100198.22
2022-07-25T21:15:24.288Z,100215.81
2022-07-25T21:17:52.017Z,100219.69
2022-07-25T21:20:19.624Z,100212.13
2022-07-25T21:22:47.331Z,100216.19
2022-07-25T21:25:15.083Z,100241.16
2022-07-25T21:27:43.907Z,100251.78
2022-07-25T21:30:12.336Z,100263.63
2022-07-25T21:32:41.162Z,100271.41
2022-07-25T21:35:09.570Z,100286.53
2022-07-25T21:37:37.128Z,100311.97
2022-07-25T21:40:05.466Z,100309.91
2022-07-25T21:42:33.320Z,100308.06
2022-07-25T21:45:02.150Z,100295.16
2022-07-25T21:47:29.626Z,100300.84
2022-07-25T21:50:19.236Z,100279.34
2022-07-25T21:52:52.841Z,100268.75
2022-07-25T21:55:21.488Z,100289.44
2022-07-25T21:57:49.651Z,100275.22
2022-07-25T22:00:19.731Z,100248.13
2022-07-25T22:02:48.023Z,100275.19
2022-07-25T22:05:17.072Z,100263.69
2022-07-25T22:07:46.665Z,100264.06
2022-07-25T22:10:16.283Z,100262.00
2022-07-25T22:12:44.086Z,100268.88
2022-07-25T22:15:13.058Z,100267.63
2022-07-25T22:17:48.232Z,100268.41
2022-07-25T22:20:17.698Z,100270.38
2022-07-25T22:22:45.182Z,100283.59
2022-07-25T22:25:12.836Z,100290.31
2022-07-25T22:27:40.394Z,100296.31
2022-07-25T22:30:12.230Z,100294.63
2022-07-25T22:32:43.699Z,100291.06
2022-07-25T22:35:11.324Z,100273.53
2022-07-25T22:37:38.784Z,100274.38
2022-07-25T22:40:07.643Z,100279.22
2022-07-25T22:42:35.150Z,100281.03
2022-07-25T22:45:02.691Z,100273.91
2022-07-25T22:47:30.170Z,100278.56
2022-07-25T22:49:59.081Z,100300.19
2022-07-25T22:52:26.615Z,100295.91
2022-07-25T22:54:54.103Z,100293.25
2022-07-25T22:57:21.595Z,100280.06
2022-07-25T22:59:49.533Z,100299.75
2022-07-25T23:02:17.302Z,100300.91
2022-07-25T23:04:44.810Z,100312.19
2022-07-25T23:07:13.682Z,100314.00
2022-07-25T23:09:41.232Z,100316.66
2022-07-25T23:12:09.434Z,100318.50
2022-07-25T23:14:37.002Z,100309.53
2022-07-25T23:17:20.772Z,100312.19
2022-07-25T23:19:51.311Z,100307.88
2022-07-25T23:22:22.193Z,100315.22
2022-07-25T23:24:50.445Z,100326.03
2022-07-25T23:27:19.031Z,100334.16
2022-07-25T23:29:46.546Z,100341.50
2022-07-25T23:32:14.223Z,100341.84
2022-07-25T23:34:41.802Z,100337.47
2022-07-25T23:37:09.321Z,100350.38
2022-07-25T23:39:38.245Z,100360.34
2022-07-25T23:42:05.830Z,100401.34
2022-07-25T23:44:33.367Z,100389.63
2022-07-25T23:47:04.264Z,100366.63
2022-07-25T23:49:34.724Z,100386.56
2022-07-25T23:52:02.214Z,100390.41
2022-07-25T23:54:29.759Z,100409.16
2022-07-25T23:56:58.592Z,100382.16
2022-07-25T23:59:26.130Z,100344.94
